Latest Weather Observations for Stenhouse Bay

IDS60801

Issued at 3:05 pm CDT Thursday 27 November 2014 (issued every 30 minutes, with the page automatically refreshed every 10 minutes)

About weather observations | Map of weather stations | Latest weather observations for SA | Other Formats
Station Details ID: 022049 Name: STENHOUSE BAY Lat: -35.28 Lon: 136.94 Height: 42.0 m
Data from the previous 72 hours. | See also: Recent months at Stenhouse Bay
Date/Time
CDT
Temp
°C
App
Temp
°C
Dew
Point
Rel
Hum
%
Delta-T
°C
Wind Press
QNH
hPa
Press
MSL
hPa
Rain
since 9 am
mm
Dir
 
Spd
km/h
Gust
km/h
Spd
kts
Gust
kts
27/03:00pm 20.5 16.6 12.2 59 4.6 E 24 30 13 16 1022.7 1022.6 0.0
27/02:30pm 20.7 17.3 12.4 59 4.7 E 22 30 12 16 1023.1 1023.0 0.0
27/02:00pm 20.3 16.1 12.3 60 4.5 E 26 30 14 16 1023.2 1023.1 0.0
27/01:30pm 19.5 15.7 12.3 63 4.0 E 24 32 13 17 1023.6 1023.5 0.0
27/01:00pm 19.6 15.3 11.9 61 4.3 E 26 33 14 18 1023.8 1023.7 0.0
27/12:30pm 19.1 14.4 11.9 63 4.0 E 28 33 15 18 1023.9 1023.8 0.0
27/12:00pm 19.1 14.3 11.7 62 4.1 E 28 35 15 19 1024.1 1024.0 0.0
27/11:30am 19.3 14.9 11.6 61 4.2 E 26 35 14 19 1024.3 1024.2 0.0
27/11:00am 19.0 13.7 11.3 61 4.2 ESE 30 35 16 19 1024.5 1024.4 0.0
27/10:30am 18.4 13.0 12.2 67 3.4 ESE 32 41 17 22 1024.5 1024.4 0.0
27/10:00am 17.9 12.2 11.9 68 3.3 E 33 39 18 21 1024.7 1024.6 0.0
27/09:30am 17.5 11.9 11.5 68 3.3 E 32 43 17 23 1024.8 1024.7 0.0
27/09:00am 17.5 11.4 11.8 69 3.1 ESE 35 41 19 22 1024.6 1024.5 0.0
27/08:30am 17.0 11.4 12.1 73 2.7 ESE 33 44 18 24 1024.6 1024.5 0.0
27/08:00am 16.7 11.2 12.0 74 2.6 ESE 32 41 17 22 1024.4 1024.3 0.0
27/07:30am 16.1 10.4 11.9 76 2.3 ESE 33 43 18 23 1024.1 1024.0 0.0
27/07:00am 15.8 10.1 11.8 77 2.2 ESE 33 41 18 22 1023.9 1023.8 0.0
27/06:30am 15.6 10.1 12.0 79 2.0 ESE 32 43 17 23 1023.5 1023.4 0.0
27/06:00am 15.5 9.9 11.5 77 2.1 E 32 41 17 22 1023.3 1023.2 0.0
27/05:30am 15.6 10.0 11.6 77 2.2 E 32 41 17 22 1023.0 1022.9 0.0
27/05:00am 15.4 9.9 11.8 79 2.0 ESE 32 39 17 21 1022.7 1022.6 0.0
27/04:30am 15.4 9.9 11.8 79 1.9 ESE 32 41 17 22 1022.6 1022.5 0.0
27/04:00am 15.6 10.3 12.4 81 1.8 ESE 32 41 17 22 1022.3 1022.2 0.0
27/03:30am 15.4 10.7 12.0 80 1.8 ESE 28 37 15 20 1022.4 1022.3 0.0
27/03:00am 15.4 10.7 12.0 80 1.8 ESE 28 35 15 19 1022.7 1022.6 0.0
27/02:30am 15.4 11.1 12.2 81 1.7 SE 26 32 14 17 1023.0 1022.9 0.0
27/02:00am 15.4 11.1 12.2 81 1.7 SE 26 35 14 19 1023.3 1023.2 0.0
27/01:30am 15.6 11.4 12.5 82 1.7 SE 26 33 14 18 1023.7 1023.6 0.0
27/01:00am 15.2 11.4 12.3 83 1.6 SE 24 32 13 17 1024.1 1024.0 0.0
27/12:30am 15.6 11.4 12.4 81 1.7 SE 26 32 14 17 1024.4 1024.3 0.0
27/12:00am 15.7 12.0 12.6 82 1.7 SE 24 30 13 16 1024.5 1024.4 0.0
 
Date/Time
CDT
Temp
°C
App
Temp
°C
Dew
Point
Rel
Hum
%
Delta-T
°C
Wind Press
QNH
hPa
Press
MSL
hPa
Rain
since 9 am
mm
Dir
 
Spd
km/h
Gust
km/h
Spd
kts
Gust
kts
26/11:30pm 15.2 10.3 12.5 84 1.5 SE 30 39 16 21 1024.5 1024.4 0.0
26/11:00pm 15.8 11.9 12.2 79 2.0 SE 24 30 13 16 1024.5 1024.4 0.0
26/10:30pm 16.1 11.9 11.1 72 2.7 SE 24 33 13 18 1024.3 1024.2 0.0
26/10:00pm 16.2 11.2 10.9 71 2.8 ESE 28 37 15 20 1024.2 1024.1 0.0
26/09:30pm 16.6 12.0 10.9 69 3.0 SE 26 35 14 19 1024.0 1023.9 0.0
26/09:00pm 16.7 12.9 11.0 69 3.0 SE 22 32 12 17 1023.8 1023.7 0.0
26/08:30pm 16.9 12.7 11.0 68 3.2 SE 24 33 13 18 1023.6 1023.5 0.0
26/08:00pm 17.2 14.9 11.9 71 2.9 SSE 15 26 8 14 1023.4 1023.3 0.0
26/07:30pm 17.2 16.0 11.5 69 3.1 S 9 13 5 7 1023.3 1023.2 0.0
26/07:00pm 17.4 16.4 11.0 66 3.5 S 7 9 4 5 1022.9 1022.8 0.0
26/06:30pm 18.1 17.3 11.2 64 3.7 S 6 7 3 4 1022.8 1022.7 0.0
26/06:00pm 18.6 17.8 11.2 62 4.0 SE 6 9 3 5 1022.7 1022.6 0.0
26/05:30pm 18.6 17.8 11.7 64 3.8 S 7 13 4 7 1022.6 1022.5 0.0
26/05:00pm 19.7 18.2 12.0 61 4.3 SW 11 15 6 8 1022.8 1022.7 0.0
26/04:30pm 20.0 18.1 11.8 59 4.5 SW 13 19 7 10 1022.9 1022.8 0.0
26/04:00pm 19.6 17.5 11.1 58 4.7 SSW 13 17 7 9 1023.0 1022.9 0.0
26/03:30pm 19.1 17.3 10.9 59 4.4 SSW 11 15 6 8 1023.1 1023.0 0.0
26/03:00pm 19.2 17.6 10.2 56 4.8 S 9 15 5 8 1023.4 1023.3 0.0
26/02:30pm 19.6 17.3 10.3 55 5.0 S 13 20 7 11 1023.5 1023.4 0.0
26/02:00pm 18.3 15.6 9.1 55 4.8 S 13 17 7 9 1023.8 1023.7 0.0
26/01:30pm 17.8 15.4 8.6 55 4.7 S 11 17 6 9 1024.1 1024.0 0.0
26/01:00pm 18.3 15.2 8.8 54 4.9 S 15 19 8 10 1024.2 1024.1 0.0
26/12:30pm 17.4 14.2 8.3 55 4.6 S 15 20 8 11 1024.6 1024.5 0.0
26/12:00pm 17.6 14.6 7.9 53 4.9 SSE 13 19 7 10 1024.9 1024.8 0.0
26/11:30am 17.6 15.2 8.5 55 4.7 SE 11 15 6 8 1025.1 1025.1 0.0
26/11:00am 16.5 13.7 8.5 59 4.1 SSE 13 19 7 10 1025.1 1025.1 0.0
26/10:30am 17.0 14.5 8.2 56 4.5 SSE 11 17 6 9 1025.3 1025.3 0.0
26/10:00am 16.6 13.9 8.8 60 4.0 SSE 13 19 7 10 1025.1 1025.1 0.0
26/09:30am 16.0 13.2 8.7 62 3.7 SSE 13 17 7 9 1025.0 1024.9 0.0
26/09:00am 15.9 13.1 8.6 62 3.7 SSE 13 17 7 9 1024.8 1024.7 0.0
26/08:30am 16.2 13.4 8.4 60 4.0 SSE 13 17 7 9 1024.4 1024.3 0.0
26/08:00am 15.6 12.0 8.4 62 3.7 SSE 17 20 9 11 1024.0 1023.9 0.0
26/07:30am 15.0 11.8 8.5 65 3.3 SSE 15 22 8 12 1023.6 1023.5 0.0
26/07:00am 14.4 11.2 8.6 68 2.9 SSE 15 19 8 10 1023.2 1023.1 0.0
26/06:30am 13.7 10.1 8.3 70 2.7 SSE 17 22 9 12 1022.9 1022.8 0.0
26/06:00am 13.7 10.6 9.0 73 2.4 SSE 15 19 8 10 1022.5 1022.4 0.0
26/05:30am 13.8 10.6 8.6 71 2.6 SSE 15 22 8 12 1022.3 1022.2 0.0
26/05:00am 13.7 10.3 9.0 73 2.4 S 17 24 9 13 1022.1 1022.0 0.0
26/04:30am 13.6 10.2 7.8 68 2.9 SSE 15 22 8 12 1022.0 1021.9 0.0
26/04:00am 13.7 10.0 7.9 68 2.9 SSE 17 22 9 12 1022.0 1021.9 0.0
26/03:30am 13.4 10.5 8.0 70 2.7 SSE 13 19 7 10 1022.1 1022.0 0.0
26/03:00am 13.4 9.7 7.8 69 2.8 S 17 20 9 11 1022.2 1022.1 0.0
26/02:30am 13.6 10.6 7.8 68 2.9 S 13 17 7 9 1022.5 1022.4 0.0
26/02:00am 13.5 10.0 7.3 66 3.0 S 15 20 8 11 1022.6 1022.5 0.0
26/01:30am 13.7 9.9 7.5 66 3.0 SSE 17 20 9 11 1022.7 1022.6 0.0
26/01:00am 13.8 10.1 7.8 67 3.0 SSE 17 22 9 12 1023.1 1023.0 0.0
26/12:30am 13.9 10.0 7.2 64 3.3 SSE 17 22 9 12 1023.3 1023.2 0.0
26/12:00am 14.1 9.7 7.6 65 3.2 S 20 26 11 14 1023.5 1023.4 0.0
 
Date/Time
CDT
Temp
°C
App
Temp
°C
Dew
Point
Rel
Hum
%
Delta-T
°C
Wind Press
QNH
hPa
Press
MSL
hPa
Rain
since 9 am
mm
Dir
 
Spd
km/h
Gust
km/h
Spd
kts
Gust
kts
25/11:30pm 14.1 9.7 7.4 64 3.3 S 20 26 11 14 1023.6 1023.5 0.0
25/11:00pm 14.2 9.7 6.8 61 3.6 S 20 26 11 14 1023.8 1023.7 0.0
25/10:30pm 14.4 9.3 7.7 64 3.3 S 24 30 13 16 1023.8 1023.7 0.0
25/10:00pm 14.6 9.8 7.4 62 3.6 S 22 28 12 15 1023.7 1023.6 0.0
25/09:30pm 14.9 10.9 8.4 65 3.3 S 19 28 10 15 1023.6 1023.5 0.0
25/09:00pm 14.9 11.0 8.6 66 3.2 SSW 19 30 10 16 1023.6 1023.5 0.0
25/08:30pm 15.1 10.9 8.3 64 3.4 SSW 20 30 11 16 1023.4 1023.3 0.0
25/08:00pm 15.5 11.3 8.3 62 3.6 SSW 20 32 11 17 1023.1 1023.0 0.0
25/07:30pm 15.7 11.1 8.2 61 3.8 SSW 22 32 12 17 1022.9 1022.8 0.0
25/07:00pm 16.7 12.7 8.4 58 4.2 SW 19 30 10 16 1022.6 1022.5 0.0
25/06:30pm 16.7 12.0 7.9 56 4.4 SW 22 30 12 16 1022.4 1022.3 0.0
25/06:00pm 17.1 12.5 8.0 55 4.6 SW 22 32 12 17 1022.3 1022.2 0.0
25/05:30pm 17.5 13.4 8.6 56 4.6 SW 20 28 11 15 1022.4 1022.3 0.0
25/05:00pm 18.0 13.8 8.3 53 5.0 SW 20 28 11 15 1022.4 1022.3 0.0
25/04:30pm 18.4 14.1 7.8 50 5.4 SW 20 28 11 15 1022.6 1022.5 0.0
25/04:00pm 18.9 14.4 7.0 46 6.0 SW 20 30 11 16 1022.8 1022.7 0.0
25/03:30pm 18.8 14.2 8.2 50 5.4 SW 22 30 12 16 1023.1 1023.0 0.0
25/03:00pm 18.9 14.5 7.4 47 5.8 SW 20 28 11 15 1023.2 1023.1 0.0
25/02:30pm 19.1 14.9 7.5 47 5.9 SW 19 26 10 14 1023.3 1023.2 0.0
25/02:00pm 19.3 15.2 7.7 47 5.9 SW 19 24 10 13 1023.4 1023.3 0.0
25/01:30pm 19.7 15.9 7.4 45 6.3 SW 17 26 9 14 1023.4 1023.3 0.0
25/01:00pm 19.5 15.8 7.9 47 6.0 SW 17 24 9 13 1023.4 1023.3 0.0
25/12:30pm 18.6 14.4 7.4 48 5.7 SW 19 24 10 13 1023.6 1023.5 0.0
25/12:00pm 18.5 14.9 6.7 46 5.9 SW 15 22 8 12 1023.7 1023.6 0.0
25/11:30am 18.7 15.3 7.5 48 5.7 SW 15 22 8 12 1023.7 1023.6 0.0
25/11:00am 17.8 14.3 7.0 49 5.4 SW 15 20 8 11 1023.7 1023.6 0.0
25/10:30am 17.4 13.8 6.6 49 5.3 SSW 15 20 8 11 1023.7 1023.6 0.0
25/10:00am 18.1 14.7 7.8 51 5.2 SW 15 20 8 11 1023.7 1023.6 0.0
25/09:30am 17.6 14.3 8.2 54 4.8 SSW 15 20 8 11 1023.7 1023.6 0.0
25/09:00am 17.3 14.3 7.9 54 4.8 SSW 13 20 7 11 1023.5 1023.4 0.0
25/08:30am 16.6 13.5 5.6 48 5.3 SW 11 19 6 10 1023.1 1023.0 0.0
25/08:00am 14.8 11.4 7.8 63 3.5 SW 15 22 8 12 1022.8 1022.7 0.0
25/07:30am 14.7 11.4 8.0 64 3.3 SW 15 22 8 12 1022.4 1022.3 0.0
25/07:00am 14.3 10.5 7.6 64 3.3 SW 17 22 9 12 1022.2 1022.1 0.0
25/06:30am 14.3 10.4 6.9 61 3.6 SW 17 24 9 13 1021.8 1021.7 0.0
25/06:00am 14.4 10.5 7.0 61 3.6 SSW 17 24 9 13 1021.3 1021.2 0.0
25/05:30am 14.2 10.0 7.5 64 3.3 SSW 19 26 10 14 1021.0 1020.9 0.0
25/05:00am 14.3 11.2 8.9 70 2.7 SSW 15 26 8 14 1020.7 1020.6 0.0
25/04:30am 14.2 10.5 7.9 66 3.1 SW 17 24 9 13 1020.6 1020.5 0.0
25/04:00am 14.3 10.0 8.0 66 3.1 SSW 20 30 11 16 1020.5 1020.4 0.0
25/03:30am 14.3 10.3 8.3 67 3.0 SSW 19 30 10 16 1020.4 1020.3 0.0
25/03:00am 14.3 9.5 8.9 70 2.7 SSW 24 32 13 17 1020.2 1020.1 0.0
25/02:30am 14.3 9.5 8.7 69 2.8 S 24 32 13 17 1020.1 1020.0 0.0
25/02:00am 14.3 9.8 8.7 69 2.8 SSW 22 32 12 17 1020.2 1020.1 0.0
25/01:30am 14.4 9.9 8.6 68 2.9 SSW 22 32 12 17 1020.2 1020.1 0.0
25/01:00am 14.6 9.4 9.0 69 2.9 SSW 26 35 14 19 1020.1 1020.0 0.0
25/12:30am 14.7 9.4 8.6 67 3.1 SSW 26 35 14 19 1020.1 1020.0 0.0
25/12:00am 14.8 10.1 9.4 70 2.8 SSW 24 33 13 18 1020.3 1020.2 0.0
 
Date/Time
CDT
Temp
°C
App
Temp
°C
Dew
Point
Rel
Hum
%
Delta-T
°C
Wind Press
QNH
hPa
Press
MSL
hPa
Rain
since 9 am
mm
Dir
 
Spd
km/h
Gust
km/h
Spd
kts
Gust
kts
24/11:30pm 14.8 10.9 9.6 71 2.7 SSW 20 30 11 16 1020.4 1020.3 0.0
24/11:00pm 15.2 11.3 9.3 68 3.0 SSW 20 35 11 19 1020.2 1020.1 0.0
24/10:30pm 15.1 10.7 9.0 67 3.1 SSW 22 35 12 19 1020.2 1020.1 0.0
24/10:00pm 15.2 10.2 8.2 63 3.5 SW 24 35 13 19 1020.0 1019.9 0.0
24/09:30pm 15.0 9.6 7.8 62 3.6 SW 26 33 14 18 1019.7 1019.6 0.0
24/09:00pm 15.1 9.6 7.6 61 3.7 SW 26 35 14 19 1019.4 1019.3 0.0
24/08:30pm 15.2 10.2 8.2 63 3.5 SW 24 37 13 20 1019.0 1018.9 0.0
24/08:00pm 15.2 9.3 7.7 61 3.7 SW 28 43 15 23 1018.4 1018.3 0.0
24/07:30pm 15.8 9.2 7.6 58 4.1 SW 32 41 17 22 1018.1 1018.0 0.0
24/07:00pm 16.2 10.0 7.9 58 4.2 SW 30 39 16 21 1017.8 1017.7 0.0
24/06:30pm 16.6 10.1 8.3 58 4.2 SW 32 46 17 25 1017.3 1017.2 0.0
24/06:00pm 16.9 10.1 7.8 55 4.6 SW 33 44 18 24 1017.2 1017.1 0.0
24/05:30pm 17.4 10.9 8.3 55 4.7 SW 32 43 17 23 1017.1 1017.0 0.0
24/05:00pm 18.0 11.2 9.4 57 4.5 SW 35 46 19 25 1016.9 1016.8 0.0
24/04:30pm 18.1 11.6 8.9 55 4.8 SW 33 43 18 23 1016.7 1016.6 0.0
24/04:00pm 17.8 11.8 8.6 55 4.8 SW 30 41 16 22 1016.5 1016.4 0.0
24/03:30pm 18.6 12.1 8.3 51 5.3 SW 32 41 17 22 1016.2 1016.1 0.0

Other Formats:

Comma delimited format used in spreadsheet applications
http://www.bom.gov.au/fwo/IDS60801/IDS60801.95806.axf

JavaScript Object Notation format (JSON) in row-major order
http://www.bom.gov.au/fwo/IDS60801/IDS60801.95806.json